createdAt,value
2019-02-24T00:02:02.461Z,45.90
2019-02-24T00:04:30.677Z,45.90
2019-02-24T00:06:58.674Z,44.80
2019-02-24T00:09:46.184Z,45.60
2019-02-24T00:12:27.010Z,45.40
2019-02-24T00:15:14.501Z,45.80
2019-02-24T00:17:55.177Z,45.20
2019-02-24T00:20:23.258Z,47.20
2019-02-24T00:23:04.435Z,47.20
2019-02-24T00:25:32.503Z,46.90
2019-02-24T00:28:06.985Z,46.80
2019-02-24T00:30:50.085Z,46.70
2019-02-24T00:33:30.749Z,47.40
2019-02-24T00:36:19.172Z,46.70
2019-02-24T00:38:59.804Z,47.70
2019-02-24T00:41:47.505Z,48.60
2019-02-24T00:44:28.318Z,48.90
2019-02-24T00:47:08.625Z,49.50
2019-02-24T00:49:56.208Z,51.20
2019-02-24T00:52:36.995Z,51.00
2019-02-24T00:55:25.405Z,51.10
2019-02-24T00:57:53.299Z,51.40
2019-02-24T01:00:21.191Z,52.30
2019-02-24T01:03:03.374Z,52.60
2019-02-24T01:05:51.878Z,53.50
2019-02-24T01:08:32.455Z,54.00
2019-02-24T01:11:19.908Z,53.90
2019-02-24T01:13:54.271Z,54.60
2019-02-24T01:16:24.188Z,54.20
2019-02-24T01:18:54.674Z,54.40
2019-02-24T01:21:25.232Z,54.50
2019-02-24T01:23:55.181Z,53.60
2019-02-24T01:26:27.476Z,53.20
2019-02-24T01:28:59.249Z,53.70
2019-02-24T01:31:28.612Z,53.10
2019-02-24T01:34:02.290Z,54.80
2019-02-24T01:36:31.185Z,55.00
2019-02-24T01:38:59.429Z,54.70
2019-02-24T01:41:27.299Z,54.30
2019-02-24T01:43:55.263Z,53.10
2019-02-24T01:46:23.218Z,52.50
2019-02-24T01:48:51.186Z,52.30
2019-02-24T01:51:19.124Z,52.80
2019-02-24T01:53:47.081Z,53.20
2019-02-24T01:56:15.080Z,53.10
2019-02-24T01:58:43.070Z,53.60
2019-02-24T02:01:11.078Z,54.10
2019-02-24T02:03:39.211Z,54.60
2019-02-24T02:06:07.409Z,54.70
2019-02-24T02:08:35.374Z,55.70
2019-02-24T02:11:03.446Z,54.70
2019-02-24T02:13:31.492Z,54.70
2019-02-24T02:15:59.537Z,54.50
2019-02-24T02:18:27.624Z,54.40
2019-02-24T02:20:55.511Z,54.70
2019-02-24T02:23:23.520Z,53.10
2019-02-24T02:25:51.437Z,52.80
2019-02-24T02:28:19.432Z,52.10
2019-02-24T02:30:47.414Z,51.30
2019-02-24T02:33:16.681Z,51.90
2019-02-24T02:35:44.577Z,52.60
2019-02-24T02:38:12.527Z,53.10
2019-02-24T02:40:40.446Z,53.30
2019-02-24T02:43:10.181Z,53.40
2019-02-24T02:45:38.810Z,54.40
2019-02-24T02:48:06.778Z,54.50
2019-02-24T02:50:34.697Z,54.60
2019-02-24T02:53:02.711Z,52.90
2019-02-24T02:55:30.692Z,53.90
2019-02-24T02:57:58.626Z,55.40
2019-02-24T03:00:33.801Z,55.70
2019-02-24T03:03:01.733Z,55.50
2019-02-24T03:05:29.870Z,54.20
2019-02-24T03:08:16.045Z,55.00
2019-02-24T03:10:43.945Z,54.40
2019-02-24T03:13:11.849Z,54.40
2019-02-24T03:15:40.789Z,54.90
2019-02-24T03:18:08.757Z,54.30
2019-02-24T03:20:36.652Z,53.00
2019-02-24T03:23:05.054Z,54.70
2019-02-24T03:25:33.114Z,54.20
2019-02-24T03:28:01.104Z,54.60
2019-02-24T03:30:29.087Z,55.30
2019-02-24T03:32:57.017Z,55.00
2019-02-24T03:35:24.951Z,55.00
2019-02-24T03:37:52.902Z,56.20
2019-02-24T03:40:20.915Z,56.50
2019-02-24T03:42:48.830Z,56.00
2019-02-24T03:45:16.770Z,55.70
2019-02-24T03:47:44.663Z,56.50
2019-02-24T03:50:12.785Z,56.30
2019-02-24T03:52:40.705Z,56.50
2019-02-24T03:55:08.609Z,56.50
2019-02-24T03:57:36.642Z,56.50
2019-02-24T04:00:05.121Z,56.60
2019-02-24T04:02:33.118Z,56.90
2019-02-24T04:05:00.974Z,56.20
2019-02-24T04:07:28.858Z,55.90
2019-02-24T04:09:56.755Z,56.00
2019-02-24T04:12:25.094Z,55.30
2019-02-24T04:14:53.120Z,54.70
2019-02-24T04:17:21.057Z,55.50
2019-02-24T04:19:49.000Z,54.60
2019-02-24T04:22:16.966Z,55.10
2019-02-24T04:24:44.839Z,55.00
2019-02-24T04:27:12.805Z,54.90
2019-02-24T04:29:40.702Z,55.20
2019-02-24T04:32:08.708Z,55.20
2019-02-24T04:34:36.719Z,54.80
2019-02-24T04:37:04.651Z,54.40
2019-02-24T04:39:38.584Z,54.40
2019-02-24T04:42:25.990Z,54.90
2019-02-24T04:44:53.955Z,56.60
2019-02-24T04:47:21.835Z,56.00
2019-02-24T04:49:49.787Z,56.30
2019-02-24T04:52:17.720Z,55.90
2019-02-24T04:54:45.655Z,56.50
2019-02-24T04:57:14.763Z,56.50
2019-02-24T04:59:42.645Z,56.90
2019-02-24T05:02:10.571Z,56.80
2019-02-24T05:04:38.602Z,54.00
2019-02-24T05:07:06.601Z,52.60
2019-02-24T05:09:34.524Z,52.80
2019-02-24T05:12:02.422Z,53.90
2019-02-24T05:14:30.407Z,53.40
2019-02-24T05:16:58.345Z,51.80
2019-02-24T05:19:26.210Z,52.10
2019-02-24T05:21:54.118Z,51.30
2019-02-24T05:24:22.967Z,50.40
2019-02-24T05:26:50.863Z,49.40
2019-02-24T05:29:20.382Z,48.30
2019-02-24T05:31:48.588Z,46.80
2019-02-24T05:34:16.629Z,46.60
2019-02-24T05:36:45.654Z,46.30
2019-02-24T05:39:13.616Z,45.40
2019-02-24T05:41:42.426Z,45.00
2019-02-24T05:44:10.315Z,44.90
2019-02-24T05:46:38.227Z,45.10
2019-02-24T05:49:07.277Z,45.70
2019-02-24T05:51:35.196Z,45.10
2019-02-24T05:54:03.406Z,44.60
2019-02-24T05:56:31.451Z,45.70
2019-02-24T05:58:59.617Z,45.70
2019-02-24T06:01:27.573Z,44.00
2019-02-24T06:03:55.708Z,44.90
2019-02-24T06:06:23.624Z,45.10
2019-02-24T06:08:51.613Z,47.10
2019-02-24T06:11:19.609Z,48.80
2019-02-24T06:13:47.771Z,49.80
2019-02-24T06:16:16.006Z,50.30
2019-02-24T06:18:43.959Z,51.00
2019-02-24T06:21:11.911Z,50.60
2019-02-24T06:23:39.857Z,51.70
2019-02-24T06:26:07.737Z,52.30
2019-02-24T06:28:35.956Z,51.10
2019-02-24T06:31:03.810Z,51.30
2019-02-24T06:33:31.863Z,50.20
2019-02-24T06:35:59.821Z,50.40
2019-02-24T06:38:27.997Z,50.70
2019-02-24T06:40:56.024Z,50.00
2019-02-24T06:43:24.127Z,50.10
2019-02-24T06:45:52.218Z,49.80
2019-02-24T06:48:20.229Z,49.90
2019-02-24T06:50:54.969Z,50.60
2019-02-24T06:53:22.944Z,49.50
2019-02-24T06:55:51.030Z,50.80
2019-02-24T06:58:19.095Z,50.60
2019-02-24T07:00:47.004Z,51.10
2019-02-24T07:03:15.044Z,51.50
2019-02-24T07:05:43.078Z,52.00
2019-02-24T07:08:11.049Z,51.40
2019-02-24T07:10:39.084Z,51.30
2019-02-24T07:13:07.104Z,50.20
2019-02-24T07:15:35.018Z,50.30
2019-02-24T07:18:03.088Z,50.10
2019-02-24T07:20:31.068Z,47.40
2019-02-24T07:22:59.065Z,46.50
2019-02-24T07:25:27.051Z,43.90
2019-02-24T07:27:55.977Z,41.50
2019-02-24T07:30:25.311Z,40.40
2019-02-24T07:32:53.263Z,39.80
2019-02-24T07:35:21.372Z,39.80
2019-02-24T07:37:49.427Z,40.90
2019-02-24T07:40:17.459Z,39.30
2019-02-24T07:42:45.468Z,39.30
2019-02-24T07:45:13.528Z,39.80
2019-02-24T07:47:41.802Z,38.40
2019-02-24T07:50:10.019Z,35.30
2019-02-24T07:52:38.159Z,35.30
2019-02-24T07:55:06.229Z,32.80
2019-02-24T07:57:34.572Z,31.50
2019-02-24T08:00:02.721Z,31.10
2019-02-24T08:02:30.905Z,30.60
2019-02-24T08:04:58.794Z,30.30
2019-02-24T08:07:26.832Z,30.60
2019-02-24T08:09:54.927Z,31.40
2019-02-24T08:12:23.117Z,29.70
2019-02-24T08:14:52.266Z,30.10
2019-02-24T08:17:20.351Z,30.20
2019-02-24T08:19:49.129Z,30.10
2019-02-24T08:22:18.005Z,29.60
2019-02-24T08:24:46.173Z,28.40
2019-02-24T08:27:14.117Z,28.60
2019-02-24T08:29:42.256Z,28.50
2019-02-24T08:32:10.251Z,28.80
2019-02-24T08:34:40.521Z,28.70
2019-02-24T08:37:08.569Z,27.30
2019-02-24T08:39:36.573Z,27.10
2019-02-24T08:42:04.543Z,27.10
2019-02-24T08:44:32.583Z,27.20
2019-02-24T08:47:00.579Z,27.20
2019-02-24T08:49:28.810Z,26.80
2019-02-24T08:51:59.417Z,26.70
2019-02-24T08:54:27.454Z,26.30
2019-02-24T08:56:55.731Z,25.20
2019-02-24T08:59:23.773Z,24.80
2019-02-24T09:01:52.000Z,24.50
2019-02-24T09:04:19.988Z,23.80
2019-02-24T09:06:48.028Z,23.30
2019-02-24T09:09:16.110Z,23.40
2019-02-24T09:11:44.416Z,23.50
2019-02-24T09:14:12.433Z,23.60
2019-02-24T09:16:41.034Z,23.20
2019-02-24T09:19:09.044Z,23.70
2019-02-24T09:21:37.012Z,23.00
2019-02-24T09:24:05.162Z,22.70
2019-02-24T09:26:35.008Z,22.90
2019-02-24T09:29:03.032Z,23.20
2019-02-24T09:31:31.028Z,23.20
2019-02-24T09:33:59.711Z,23.80
2019-02-24T09:36:27.911Z,24.50
2019-02-24T09:38:56.758Z,23.60
2019-02-24T09:41:24.726Z,21.80
2019-02-24T09:43:52.754Z,21.70
2019-02-24T09:46:20.738Z,21.10
2019-02-24T09:48:48.742Z,21.40
2019-02-24T09:51:16.751Z,20.80
2019-02-24T09:53:45.835Z,20.30
2019-02-24T09:56:14.617Z,20.40
2019-02-24T09:58:42.749Z,20.40
2019-02-24T10:01:11.114Z,20.60
2019-02-24T10:03:39.186Z,20.50
2019-02-24T10:06:10.304Z,20.40
2019-02-24T10:08:38.569Z,20.50
2019-02-24T10:11:06.782Z,20.60
2019-02-24T10:13:35.040Z,21.20
2019-02-24T10:16:03.272Z,20.40
2019-02-24T10:18:31.338Z,20.50
2019-02-24T10:21:00.428Z,21.10
2019-02-24T10:23:28.496Z,21.30
2019-02-24T10:25:56.581Z,20.90
2019-02-24T10:28:24.597Z,20.90
2019-02-24T10:30:53.175Z,21.00
2019-02-24T10:33:21.417Z,21.50
2019-02-24T10:35:49.677Z,21.20
2019-02-24T10:38:18.816Z,21.30
2019-02-24T10:40:47.348Z,20.80
2019-02-24T10:43:15.628Z,20.70
2019-02-24T10:45:43.677Z,20.60
2019-02-24T10:48:14.212Z,20.70
2019-02-24T10:50:41.837Z,20.50
2019-02-24T10:53:10.098Z,20.60
2019-02-24T10:55:40.927Z,20.80
2019-02-24T10:58:08.985Z,20.40
2019-02-24T11:00:37.035Z,20.10
2019-02-24T11:03:05.269Z,20.00
2019-02-24T11:05:34.271Z,19.50
2019-02-24T11:08:02.740Z,19.50
2019-02-24T11:10:31.021Z,18.80
2019-02-24T11:12:59.190Z,19.00
2019-02-24T11:15:27.351Z,18.50
2019-02-24T11:17:55.542Z,18.60
2019-02-24T11:20:23.577Z,18.40
2019-02-24T11:22:51.731Z,17.80
2019-02-24T11:25:20.885Z,17.90
2019-02-24T11:27:48.832Z,17.80
2019-02-24T11:30:16.964Z,18.10
2019-02-24T11:32:45.092Z,18.30
2019-02-24T11:35:13.317Z,17.80
2019-02-24T11:37:41.491Z,17.60
2019-02-24T11:40:10.180Z,17.70
2019-02-24T11:42:38.344Z,17.90
2019-02-24T11:45:07.788Z,17.30
2019-02-24T11:47:35.824Z,16.80
2019-02-24T11:50:04.289Z,17.10
2019-02-24T11:52:32.479Z,16.80
2019-02-24T11:55:00.739Z,17.30
2019-02-24T11:57:28.912Z,16.80
2019-02-24T11:59:57.341Z,16.50
2019-02-24T12:02:33.936Z,16.70
2019-02-24T12:04:56.618Z,16.90
2019-02-24T12:07:24.765Z,16.80
2019-02-24T12:09:53.035Z,16.40
2019-02-24T12:12:22.005Z,16.40
2019-02-24T12:14:50.182Z,17.10
2019-02-24T12:17:27.374Z,15.80
2019-02-24T12:19:55.693Z,15.90
2019-02-24T12:22:23.793Z,16.40
2019-02-24T12:24:52.042Z,16.20
2019-02-24T12:27:20.263Z,16.10
2019-02-24T12:29:48.366Z,16.60
2019-02-24T12:32:16.557Z,16.80
2019-02-24T12:34:44.738Z,16.30
2019-02-24T12:37:14.025Z,15.00
2019-02-24T12:39:43.193Z,15.60
2019-02-24T12:42:11.322Z,15.10
2019-02-24T12:44:39.467Z,14.90
2019-02-24T12:47:08.549Z,14.40
2019-02-24T12:49:36.580Z,14.50
2019-02-24T12:52:04.952Z,14.70
2019-02-24T12:54:33.136Z,14.90
2019-02-24T12:57:01.810Z,14.80
2019-02-24T12:59:31.524Z,15.10
2019-02-24T13:02:05.784Z,15.00
2019-02-24T13:04:29.820Z,15.00
2019-02-24T13:06:57.908Z,15.20
2019-02-24T13:09:26.088Z,14.60
2019-02-24T13:11:54.520Z,14.00
2019-02-24T13:14:23.166Z,14.00
2019-02-24T13:16:54.376Z,14.30
2019-02-24T13:19:22.481Z,13.90
2019-02-24T13:21:50.720Z,14.10
2019-02-24T13:24:18.922Z,13.60
2019-02-24T13:26:46.838Z,13.70
2019-02-24T13:29:14.937Z,13.90
2019-02-24T13:31:43.929Z,13.90
2019-02-24T13:34:11.956Z,13.70
2019-02-24T13:36:40.264Z,14.00
2019-02-24T13:39:08.432Z,14.10
2019-02-24T13:41:37.251Z,14.00
2019-02-24T13:44:05.796Z,14.10
2019-02-24T13:46:34.315Z,14.60
2019-02-24T13:49:04.304Z,13.80
2019-02-24T13:51:33.808Z,13.80
2019-02-24T13:54:03.326Z,13.80
2019-02-24T13:56:31.377Z,14.10
2019-02-24T13:58:59.364Z,14.10
2019-02-24T14:01:27.433Z,14.00
2019-02-24T14:03:57.525Z,14.30
2019-02-24T14:06:26.845Z,14.00
2019-02-24T14:08:54.924Z,13.50
2019-02-24T14:11:23.087Z,13.80
2019-02-24T14:13:51.272Z,13.60
2019-02-24T14:16:19.572Z,13.30
2019-02-24T14:18:47.575Z,13.50
2019-02-24T14:21:15.743Z,13.30
2019-02-24T14:23:43.758Z,13.30
2019-02-24T14:26:11.855Z,13.40
2019-02-24T14:28:39.987Z,13.10
2019-02-24T14:31:08.691Z,13.00
2019-02-24T14:33:36.805Z,13.10
2019-02-24T14:36:04.777Z,12.60
2019-02-24T14:38:32.954Z,12.50
2019-02-24T14:41:00.943Z,12.40
2019-02-24T14:43:29.043Z,12.80
2019-02-24T14:45:57.147Z,12.90
2019-02-24T14:48:25.320Z,12.80
2019-02-24T14:50:53.464Z,12.50
2019-02-24T14:53:22.595Z,12.80
2019-02-24T14:55:50.630Z,12.80
2019-02-24T14:58:18.849Z,13.00
2019-02-24T15:00:46.913Z,13.00
2019-02-24T15:03:14.970Z,13.20
2019-02-24T15:05:43.100Z,13.10
2019-02-24T15:08:11.466Z,12.90
2019-02-24T15:10:39.777Z,13.20
2019-02-24T15:13:07.875Z,13.60
2019-02-24T15:15:36.443Z,13.60
2019-02-24T15:18:04.571Z,13.40
2019-02-24T15:20:32.785Z,13.50
2019-02-24T15:23:00.871Z,13.70
2019-02-24T15:25:28.963Z,13.50
2019-02-24T15:27:57.093Z,13.50
2019-02-24T15:30:29.094Z,13.90
2019-02-24T15:32:57.245Z,13.80
2019-02-24T15:35:25.577Z,13.60
2019-02-24T15:37:53.655Z,12.80
2019-02-24T15:40:21.651Z,12.70
2019-02-24T15:42:50.069Z,11.90
2019-02-24T15:45:18.100Z,10.90
2019-02-24T15:47:46.162Z,10.70
2019-02-24T15:50:14.336Z,11.00
2019-02-24T15:52:42.521Z,10.90
2019-02-24T15:55:10.731Z,10.20
2019-02-24T15:57:38.956Z,9.90
2019-02-24T16:00:11.146Z,10.00
2019-02-24T16:02:39.291Z,9.90
2019-02-24T16:05:07.761Z,9.40
2019-02-24T16:07:35.911Z,9.40
2019-02-24T16:10:06.299Z,10.10
2019-02-24T16:12:34.465Z,10.40
2019-02-24T16:15:07.687Z,10.70
2019-02-24T16:17:36.222Z,10.90
2019-02-24T16:20:04.761Z,11.30
2019-02-24T16:22:33.184Z,11.60
2019-02-24T16:25:02.319Z,12.20
2019-02-24T16:27:30.536Z,11.50
2019-02-24T16:29:59.829Z,11.90
2019-02-24T16:32:28.027Z,12.60
2019-02-24T16:34:56.109Z,13.10
2019-02-24T16:37:25.483Z,13.70
2019-02-24T16:39:53.544Z,14.40
2019-02-24T16:42:21.768Z,15.10
2019-02-24T16:44:50.140Z,15.30
2019-02-24T16:47:18.439Z,15.80
2019-02-24T16:49:46.660Z,16.00
2019-02-24T16:52:15.048Z,16.60
2019-02-24T16:54:52.353Z,17.30
2019-02-24T16:57:14.453Z,17.80
2019-02-24T16:59:42.602Z,18.20
2019-02-24T17:02:10.736Z,18.70
2019-02-24T17:04:38.792Z,19.20
2019-02-24T17:07:07.003Z,19.50
2019-02-24T17:09:35.195Z,19.60
2019-02-24T17:12:03.344Z,19.80
2019-02-24T17:14:31.668Z,20.00
2019-02-24T17:17:01.752Z,21.10
2019-02-24T17:19:29.921Z,21.70
2019-02-24T17:21:58.093Z,21.70
2019-02-24T17:24:26.255Z,22.30
2019-02-24T17:26:55.333Z,22.00
2019-02-24T17:29:24.629Z,22.20
2019-02-24T17:31:52.817Z,22.30
2019-02-24T17:34:22.557Z,22.40
2019-02-24T17:36:50.878Z,22.80
2019-02-24T17:39:19.070Z,22.80
2019-02-24T17:41:47.528Z,23.20
2019-02-24T17:44:15.581Z,23.00
2019-02-24T17:46:44.253Z,23.30
2019-02-24T17:49:12.535Z,23.40
2019-02-24T17:51:42.085Z,24.10
2019-02-24T17:54:10.427Z,24.00
2019-02-24T17:56:38.670Z,24.40
2019-02-24T17:59:07.009Z,24.50
2019-02-24T18:01:37.941Z,24.10
2019-02-24T18:04:06.029Z,23.90
2019-02-24T18:06:34.093Z,23.80
2019-02-24T18:09:02.463Z,23.20
2019-02-24T18:11:32.586Z,22.90
2019-02-24T18:14:00.874Z,22.80
2019-02-24T18:16:29.116Z,22.60
2019-02-24T18:18:57.606Z,23.30
2019-02-24T18:21:26.694Z,24.70
2019-02-24T18:23:55.237Z,25.50
2019-02-24T18:26:23.352Z,24.80
2019-02-24T18:28:51.582Z,25.10
2019-02-24T18:31:19.903Z,25.50
2019-02-24T18:33:48.665Z,26.50
2019-02-24T18:36:17.147Z,26.40
2019-02-24T18:38:45.545Z,26.30
2019-02-24T18:41:13.629Z,26.50
2019-02-24T18:43:42.021Z,26.90
2019-02-24T18:46:10.471Z,26.00
2019-02-24T18:48:38.770Z,25.70
2019-02-24T18:51:07.040Z,25.60
2019-02-24T18:53:36.835Z,26.30
2019-02-24T18:56:05.752Z,27.00
2019-02-24T18:58:34.520Z,27.40
2019-02-24T19:01:02.537Z,26.30
2019-02-24T19:03:30.752Z,26.00
2019-02-24T19:05:58.953Z,25.90
2019-02-24T19:08:27.649Z,27.30
2019-02-24T19:10:57.137Z,29.30
2019-02-24T19:13:25.605Z,28.40
2019-02-24T19:15:53.678Z,29.00
2019-02-24T19:18:21.949Z,28.70
2019-02-24T19:20:50.302Z,29.40
2019-02-24T19:23:18.446Z,30.10
2019-02-24T19:25:46.666Z,30.00
2019-02-24T19:28:16.194Z,30.20
2019-02-24T19:30:44.592Z,30.20
2019-02-24T19:33:12.837Z,30.30
2019-02-24T19:35:44.549Z,30.30
2019-02-24T19:38:12.773Z,29.60
2019-02-24T19:40:40.954Z,30.00
2019-02-24T19:43:10.278Z,29.60
2019-02-24T19:45:38.728Z,30.20
2019-02-24T19:48:07.238Z,30.10
2019-02-24T19:50:35.404Z,30.00
2019-02-24T19:53:03.456Z,29.90
2019-02-24T19:55:31.869Z,30.30
2019-02-24T19:58:00.210Z,30.00
2019-02-24T20:00:28.423Z,30.10
2019-02-24T20:02:56.583Z,30.70
2019-02-24T20:05:24.786Z,31.40
2019-02-24T20:07:53.052Z,31.20
2019-02-24T20:10:21.328Z,29.80
2019-02-24T20:12:49.487Z,29.40
2019-02-24T20:15:17.742Z,30.90
2019-02-24T20:17:46.143Z,32.20
2019-02-24T20:20:14.882Z,32.90
2019-02-24T20:22:43.138Z,32.80
2019-02-24T20:25:11.917Z,32.60
2019-02-24T20:27:41.299Z,33.20
2019-02-24T20:30:19.599Z,33.30
2019-02-24T20:32:49.630Z,33.40
2019-02-24T20:35:18.261Z,35.20
2019-02-24T20:37:46.546Z,33.10
2019-02-24T20:40:14.824Z,34.30
2019-02-24T20:42:43.143Z,34.60
2019-02-24T20:45:12.598Z,35.20
2019-02-24T20:47:40.672Z,35.50
2019-02-24T20:50:10.284Z,35.20
2019-02-24T20:52:39.469Z,36.70
2019-02-24T20:55:08.451Z,35.50
2019-02-24T20:57:37.168Z,35.50
2019-02-24T21:00:14.461Z,36.90
2019-02-24T21:02:42.519Z,37.20
2019-02-24T21:05:13.754Z,37.20
2019-02-24T21:07:42.324Z,37.90
2019-02-24T21:10:10.849Z,38.10
2019-02-24T21:12:39.245Z,38.40
2019-02-24T21:15:08.669Z,38.60
2019-02-24T21:17:37.121Z,38.70
2019-02-24T21:20:11.830Z,38.40
2019-02-24T21:22:40.175Z,37.70
2019-02-24T21:25:08.629Z,37.90
2019-02-24T21:27:37.282Z,38.30
2019-02-24T21:30:06.613Z,38.20
2019-02-24T21:32:34.955Z,38.40
2019-02-24T21:35:03.646Z,38.80
2019-02-24T21:37:31.914Z,39.30
2019-02-24T21:40:00.253Z,39.30
2019-02-24T21:42:28.508Z,39.10
2019-02-24T21:44:57.792Z,39.60
2019-02-24T21:47:25.960Z,39.40
2019-02-24T21:49:54.354Z,39.20
2019-02-24T21:52:22.870Z,39.40
2019-02-24T21:54:50.970Z,39.40
2019-02-24T21:57:19.174Z,39.30
2019-02-24T21:59:47.358Z,38.90
2019-02-24T22:02:15.605Z,38.90
2019-02-24T22:04:43.718Z,39.40
2019-02-24T22:07:11.812Z,40.40
2019-02-24T22:09:41.577Z,41.40
2019-02-24T22:12:09.623Z,41.40
2019-02-24T22:14:39.104Z,41.40
2019-02-24T22:17:07.167Z,40.70
2019-02-24T22:19:35.195Z,40.70
2019-02-24T22:22:03.239Z,41.00
2019-02-24T22:24:31.314Z,41.40
2019-02-24T22:26:59.936Z,41.50
2019-02-24T22:29:35.233Z,41.30
2019-02-24T22:32:03.201Z,41.40
2019-02-24T22:34:31.172Z,41.70
2019-02-24T22:36:59.651Z,42.00
2019-02-24T22:39:27.662Z,42.30
2019-02-24T22:41:55.712Z,43.50
2019-02-24T22:44:23.855Z,43.10
2019-02-24T22:46:51.933Z,43.20
2019-02-24T22:49:20.015Z,42.80
2019-02-24T22:51:49.250Z,42.60
2019-02-24T22:54:17.340Z,43.00
2019-02-24T22:56:45.459Z,43.20
2019-02-24T22:59:13.779Z,43.30
2019-02-24T23:01:42.917Z,43.80
2019-02-24T23:04:12.802Z,44.00
2019-02-24T23:06:41.082Z,44.00
2019-02-24T23:09:17.770Z,44.30
2019-02-24T23:11:46.029Z,44.40
2019-02-24T23:14:14.001Z,44.60
2019-02-24T23:16:42.080Z,44.80
2019-02-24T23:19:10.244Z,44.60
2019-02-24T23:21:38.224Z,44.40
2019-02-24T23:24:06.274Z,44.40
2019-02-24T23:26:34.446Z,44.90
2019-02-24T23:29:02.558Z,45.50
2019-02-24T23:31:30.765Z,45.70
2019-02-24T23:33:59.125Z,45.70
2019-02-24T23:36:27.347Z,45.90
2019-02-24T23:38:55.867Z,46.00
2019-02-24T23:41:23.869Z,46.50
2019-02-24T23:43:52.019Z,46.40
2019-02-24T23:46:20.152Z,47.30
2019-02-24T23:48:48.177Z,47.20
2019-02-24T23:51:16.225Z,46.80
2019-02-24T23:53:44.234Z,47.70
2019-02-24T23:56:12.210Z,47.50
2019-02-24T23:58:40.198Z,47.50
